Channahon, Illinois
Current Conditions -  °F | °C
As of 5:55 PM on Friday 21 Nov 2014 (Local Time) from KJOT Reporting Station
Clear Clear  
Wind Chill: 22°   Ceiling: Unl
Heat Index: 29°   Visibility: 10mi
Dew Point:   Wind: 7mph
Humidity: 39%   Direction: 150°SSE
Pressure: 30.31"   Gusts: NA
Location:  41.43°N, 88.23°W
Report Text: KJOT 212355Z AUTO 15006KT 10SM CLR M02/M14 A3031 RMK AO2 T10181142 10010 21018
Loading
Personal Weather Stations






























Interactive Weather Map New forecast layout! Learn more

10-Day Weather Forecast

Advertisements
Track Severe Weather on mobile